Terminal Aerodrome Forecast
Issued by NWS

Home | Current Version | Previous Version | Text Only | Print | Product List | Glossary On
Versions: 1 2 3 4 5 6 7 8 9 10 11 12 13
000
FTUS44 KEPZ 221700
TAFTCS
TAF
KTCS 221723Z 2218/2318 30014G21KT P6SM FEW180 SCT250
     FM222000 31015G25KT P6SM SCT250
     FM230400 35012G20KT P6SM FEW150 SCT250
     FM231000 35015KT P6SM SCT080 SCT250=

USA.gov is the U.S. government's official web portal to all federal, state and local government web resources and services.